sensor_id;sensor_type;location;lat;lon;timestamp;P1;durP1;ratioP1;P2;durP2;ratioP2
48026;SDS011;50714;49.208;5.364;2022-12-29T00:01:59;2.80;;;1.77;;
48026;SDS011;50714;49.208;5.364;2022-12-29T00:12:00;3.20;;;2.03;;
48026;SDS011;50714;49.208;5.364;2022-12-29T00:22:01;3.55;;;1.85;;
48026;SDS011;50714;49.208;5.364;2022-12-29T00:32:20;4.03;;;2.08;;
48026;SDS011;50714;49.208;5.364;2022-12-29T00:42:39;3.38;;;1.95;;
48026;SDS011;50714;49.208;5.364;2022-12-29T00:52:58;3.08;;;2.03;;
48026;SDS011;50714;49.208;5.364;2022-12-29T01:02:58;2.95;;;1.77;;
48026;SDS011;50714;49.208;5.364;2022-12-29T01:12:58;2.30;;;1.42;;
48026;SDS011;50714;49.208;5.364;2022-12-29T01:22:59;2.72;;;1.75;;
48026;SDS011;50714;49.208;5.364;2022-12-29T01:32:59;2.22;;;1.63;;
48026;SDS011;50714;49.208;5.364;2022-12-29T01:42:59;2.38;;;1.70;;
48026;SDS011;50714;49.208;5.364;2022-12-29T01:53:04;3.05;;;1.60;;
48026;SDS011;50714;49.208;5.364;2022-12-29T02:03:26;2.03;;;1.30;;
48026;SDS011;50714;49.208;5.364;2022-12-29T02:13:28;2.38;;;1.25;;
48026;SDS011;50714;49.208;5.364;2022-12-29T02:23:53;2.90;;;1.30;;
48026;SDS011;50714;49.208;5.364;2022-12-29T02:44:26;1.92;;;1.00;;
48026;SDS011;50714;49.208;5.364;2022-12-29T02:54:48;1.10;;;1.00;;
48026;SDS011;50714;49.208;5.364;2022-12-29T03:15:18;1.63;;;1.20;;
48026;SDS011;50714;49.208;5.364;2022-12-29T03:25:44;1.58;;;1.30;;
48026;SDS011;50714;49.208;5.364;2022-12-29T03:35:48;2.05;;;1.00;;
48026;SDS011;50714;49.208;5.364;2022-12-29T03:45:51;1.70;;;1.20;;
48026;SDS011;50714;49.208;5.364;2022-12-29T03:55:52;1.42;;;1.33;;
48026;SDS011;50714;49.208;5.364;2022-12-29T04:05:52;1.88;;;1.42;;
48026;SDS011;50714;49.208;5.364;2022-12-29T04:15:53;1.77;;;1.15;;
48026;SDS011;50714;49.208;5.364;2022-12-29T04:25:53;2.55;;;1.00;;
48026;SDS011;50714;49.208;5.364;2022-12-29T04:35:53;1.77;;;1.20;;
48026;SDS011;50714;49.208;5.364;2022-12-29T04:45:54;1.33;;;1.20;;
48026;SDS011;50714;49.208;5.364;2022-12-29T04:55:55;2.13;;;1.10;;
48026;SDS011;50714;49.208;5.364;2022-12-29T05:05:55;1.48;;;1.30;;
48026;SDS011;50714;49.208;5.364;2022-12-29T05:15:56;2.97;;;1.60;;
48026;SDS011;50714;49.208;5.364;2022-12-29T05:25:57;3.45;;;1.85;;
48026;SDS011;50714;49.208;5.364;2022-12-29T05:36:03;7.47;;;5.53;;
48026;SDS011;50714;49.208;5.364;2022-12-29T05:46:04;2.53;;;1.73;;
48026;SDS011;50714;49.208;5.364;2022-12-29T05:56:05;3.20;;;1.97;;
48026;SDS011;50714;49.208;5.364;2022-12-29T06:06:05;2.75;;;1.80;;
48026;SDS011;50714;49.208;5.364;2022-12-29T06:16:06;3.00;;;1.92;;
48026;SDS011;50714;49.208;5.364;2022-12-29T06:26:07;3.97;;;2.05;;
48026;SDS011;50714;49.208;5.364;2022-12-29T06:36:07;3.67;;;2.15;;
48026;SDS011;50714;49.208;5.364;2022-12-29T06:46:08;1.73;;;1.60;;
48026;SDS011;50714;49.208;5.364;2022-12-29T06:56:08;1.77;;;1.50;;
48026;SDS011;50714;49.208;5.364;2022-12-29T07:06:08;1.58;;;1.38;;
48026;SDS011;50714;49.208;5.364;2022-12-29T07:16:09;6.75;;;4.45;;
48026;SDS011;50714;49.208;5.364;2022-12-29T07:26:11;3.55;;;2.30;;
48026;SDS011;50714;49.208;5.364;2022-12-29T07:36:13;2.10;;;1.20;;
48026;SDS011;50714;49.208;5.364;2022-12-29T07:46:15;2.78;;;1.30;;
48026;SDS011;50714;49.208;5.364;2022-12-29T07:56:16;13.93;;;8.32;;
48026;SDS011;50714;49.208;5.364;2022-12-29T08:06:16;11.55;;;7.97;;
48026;SDS011;50714;49.208;5.364;2022-12-29T08:16:16;6.90;;;3.72;;
48026;SDS011;50714;49.208;5.364;2022-12-29T08:26:17;4.28;;;1.90;;
48026;SDS011;50714;49.208;5.364;2022-12-29T08:36:17;2.97;;;1.80;;
48026;SDS011;50714;49.208;5.364;2022-12-29T08:46:17;12.27;;;9.15;;
48026;SDS011;50714;49.208;5.364;2022-12-29T08:56:18;8.57;;;6.57;;
48026;SDS011;50714;49.208;5.364;2022-12-29T09:06:18;2.70;;;1.70;;
48026;SDS011;50714;49.208;5.364;2022-12-29T09:16:20;1.20;;;0.90;;
48026;SDS011;50714;49.208;5.364;2022-12-29T09:26:22;2.20;;;1.05;;
48026;SDS011;50714;49.208;5.364;2022-12-29T09:36:22;2.22;;;1.30;;
48026;SDS011;50714;49.208;5.364;2022-12-29T09:56:27;2.08;;;1.00;;
48026;SDS011;50714;49.208;5.364;2022-12-29T10:06:49;1.45;;;0.95;;
48026;SDS011;50714;49.208;5.364;2022-12-29T10:27:10;2.83;;;1.50;;
48026;SDS011;50714;49.208;5.364;2022-12-29T10:37:29;1.85;;;1.10;;
48026;SDS011;50714;49.208;5.364;2022-12-29T10:47:38;2.00;;;1.02;;
48026;SDS011;50714;49.208;5.364;2022-12-29T10:57:50;2.45;;;1.20;;
48026;SDS011;50714;49.208;5.364;2022-12-29T11:07:51;3.25;;;1.33;;
48026;SDS011;50714;49.208;5.364;2022-12-29T11:17:57;3.38;;;1.38;;
48026;SDS011;50714;49.208;5.364;2022-12-29T11:38:20;2.42;;;1.00;;
48026;SDS011;50714;49.208;5.364;2022-12-29T11:48:26;2.22;;;0.93;;
48026;SDS011;50714;49.208;5.364;2022-12-29T11:58:33;1.88;;;1.08;;
48026;SDS011;50714;49.208;5.364;2022-12-29T12:08:47;5.68;;;2.38;;
48026;SDS011;50714;49.208;5.364;2022-12-29T12:18:59;4.07;;;2.03;;
48026;SDS011;50714;49.208;5.364;2022-12-29T12:29:14;3.67;;;1.70;;
48026;SDS011;50714;49.208;5.364;2022-12-29T12:39:44;5.95;;;1.63;;
48026;SDS011;50714;49.208;5.364;2022-12-29T13:00:15;4.10;;;1.20;;
48026;SDS011;50714;49.208;5.364;2022-12-29T13:20:39;5.85;;;1.92;;
48026;SDS011;50714;49.208;5.364;2022-12-29T13:41:10;3.53;;;1.90;;
48026;SDS011;50714;49.208;5.364;2022-12-29T13:51:14;5.72;;;1.90;;
48026;SDS011;50714;49.208;5.364;2022-12-29T14:01:24;5.78;;;2.00;;
48026;SDS011;50714;49.208;5.364;2022-12-29T14:11:35;6.38;;;2.63;;
48026;SDS011;50714;49.208;5.364;2022-12-29T14:21:39;5.83;;;1.73;;
48026;SDS011;50714;49.208;5.364;2022-12-29T14:31:40;4.15;;;1.35;;
48026;SDS011;50714;49.208;5.364;2022-12-29T14:41:40;7.38;;;1.85;;
48026;SDS011;50714;49.208;5.364;2022-12-29T14:51:41;3.50;;;1.83;;
48026;SDS011;50714;49.208;5.364;2022-12-29T15:01:47;3.03;;;1.42;;
48026;SDS011;50714;49.208;5.364;2022-12-29T15:11:53;5.20;;;1.90;;
48026;SDS011;50714;49.208;5.364;2022-12-29T15:21:56;4.28;;;2.08;;
48026;SDS011;50714;49.208;5.364;2022-12-29T15:32:00;7.10;;;4.53;;
48026;SDS011;50714;49.208;5.364;2022-12-29T15:52:25;4.93;;;2.53;;
48026;SDS011;50714;49.208;5.364;2022-12-29T16:02:26;3.72;;;1.92;;
48026;SDS011;50714;49.208;5.364;2022-12-29T16:12:34;5.00;;;2.92;;
48026;SDS011;50714;49.208;5.364;2022-12-29T16:22:38;5.28;;;2.55;;
48026;SDS011;50714;49.208;5.364;2022-12-29T16:32:44;6.00;;;2.78;;
48026;SDS011;50714;49.208;5.364;2022-12-29T16:42:46;5.40;;;3.20;;
48026;SDS011;50714;49.208;5.364;2022-12-29T16:52:48;5.85;;;2.65;;
48026;SDS011;50714;49.208;5.364;2022-12-29T17:02:50;6.68;;;3.00;;
48026;SDS011;50714;49.208;5.364;2022-12-29T17:12:55;4.05;;;2.50;;
48026;SDS011;50714;49.208;5.364;2022-12-29T17:22:55;5.10;;;2.92;;
48026;SDS011;50714;49.208;5.364;2022-12-29T17:33:01;5.95;;;3.40;;
48026;SDS011;50714;49.208;5.364;2022-12-29T17:43:04;4.33;;;2.67;;
48026;SDS011;50714;49.208;5.364;2022-12-29T17:53:05;6.53;;;3.42;;
48026;SDS011;50714;49.208;5.364;2022-12-29T18:03:13;5.05;;;2.53;;
48026;SDS011;50714;49.208;5.364;2022-12-29T18:13:22;12.23;;;7.72;;
48026;SDS011;50714;49.208;5.364;2022-12-29T18:23:29;7.43;;;3.60;;
48026;SDS011;50714;49.208;5.364;2022-12-29T18:33:33;4.70;;;2.30;;
48026;SDS011;50714;49.208;5.364;2022-12-29T18:43:34;6.25;;;2.90;;
48026;SDS011;50714;49.208;5.364;2022-12-29T18:53:34;5.05;;;2.70;;
48026;SDS011;50714;49.208;5.364;2022-12-29T19:03:36;8.85;;;5.45;;
48026;SDS011;50714;49.208;5.364;2022-12-29T19:13:37;12.75;;;7.95;;
48026;SDS011;50714;49.208;5.364;2022-12-29T19:23:38;11.73;;;7.15;;
48026;SDS011;50714;49.208;5.364;2022-12-29T19:33:39;14.05;;;8.18;;
48026;SDS011;50714;49.208;5.364;2022-12-29T19:43:39;8.65;;;5.15;;
48026;SDS011;50714;49.208;5.364;2022-12-29T19:53:39;9.90;;;7.28;;
48026;SDS011;50714;49.208;5.364;2022-12-29T20:03:40;16.25;;;12.10;;
48026;SDS011;50714;49.208;5.364;2022-12-29T20:13:40;11.70;;;8.00;;
48026;SDS011;50714;49.208;5.364;2022-12-29T20:23:41;7.80;;;4.50;;
48026;SDS011;50714;49.208;5.364;2022-12-29T20:33:43;6.57;;;2.80;;
48026;SDS011;50714;49.208;5.364;2022-12-29T20:43:44;7.87;;;2.90;;
48026;SDS011;50714;49.208;5.364;2022-12-29T20:53:44;9.45;;;4.57;;
48026;SDS011;50714;49.208;5.364;2022-12-29T21:03:44;9.27;;;5.45;;
48026;SDS011;50714;49.208;5.364;2022-12-29T21:13:46;19.45;;;12.20;;
48026;SDS011;50714;49.208;5.364;2022-12-29T21:23:47;37.78;;;23.95;;
48026;SDS011;50714;49.208;5.364;2022-12-29T21:33:47;24.92;;;15.18;;
48026;SDS011;50714;49.208;5.364;2022-12-29T21:43:48;10.55;;;6.80;;
48026;SDS011;50714;49.208;5.364;2022-12-29T21:54:08;7.25;;;2.95;;
48026;SDS011;50714;49.208;5.364;2022-12-29T22:04:27;6.47;;;2.90;;
48026;SDS011;50714;49.208;5.364;2022-12-29T22:14:46;6.70;;;3.35;;
48026;SDS011;50714;49.208;5.364;2022-12-29T22:24:46;6.65;;;2.95;;
48026;SDS011;50714;49.208;5.364;2022-12-29T22:34:47;6.28;;;2.20;;
48026;SDS011;50714;49.208;5.364;2022-12-29T22:44:47;4.07;;;2.08;;
48026;SDS011;50714;49.208;5.364;2022-12-29T22:54:48;4.63;;;2.05;;
48026;SDS011;50714;49.208;5.364;2022-12-29T23:04:48;5.43;;;2.53;;
48026;SDS011;50714;49.208;5.364;2022-12-29T23:14:48;4.57;;;2.30;;
48026;SDS011;50714;49.208;5.364;2022-12-29T23:24:49;8.88;;;3.80;;
48026;SDS011;50714;49.208;5.364;2022-12-29T23:34:49;6.68;;;3.08;;
48026;SDS011;50714;49.208;5.364;2022-12-29T23:44:49;8.32;;;3.15;;
48026;SDS011;50714;49.208;5.364;2022-12-29T23:54:50;5.10;;;2.92;;
